sensor_id;sensor_type;location;lat;lon;timestamp;temperature;humidity
9658;DHT22;4867;48.112;11.622;2023-04-03T00:00:44;2.60;99.90
9658;DHT22;4867;48.112;11.622;2023-04-03T00:03:12;2.50;99.90
9658;DHT22;4867;48.112;11.622;2023-04-03T00:05:39;2.50;99.90
9658;DHT22;4867;48.112;11.622;2023-04-03T00:08:07;2.60;99.90
9658;DHT22;4867;48.112;11.622;2023-04-03T00:10:36;2.60;99.90
9658;DHT22;4867;48.112;11.622;2023-04-03T00:13:05;2.60;99.90
9658;DHT22;4867;48.112;11.622;2023-04-03T00:15:34;2.40;99.90
9658;DHT22;4867;48.112;11.622;2023-04-03T00:18:02;2.50;99.90
9658;DHT22;4867;48.112;11.622;2023-04-03T00:20:30;2.50;99.90
9658;DHT22;4867;48.112;11.622;2023-04-03T00:22:59;2.50;99.90
9658;DHT22;4867;48.112;11.622;2023-04-03T00:25:26;2.60;99.90
9658;DHT22;4867;48.112;11.622;2023-04-03T00:27:54;2.60;99.90
9658;DHT22;4867;48.112;11.622;2023-04-03T00:30:22;2.50;99.90
9658;DHT22;4867;48.112;11.622;2023-04-03T00:32:50;2.60;99.90
9658;DHT22;4867;48.112;11.622;2023-04-03T00:35:19;2.60;99.90
9658;DHT22;4867;48.112;11.622;2023-04-03T00:37:47;2.60;99.90
9658;DHT22;4867;48.112;11.622;2023-04-03T00:40:15;2.70;99.90
9658;DHT22;4867;48.112;11.622;2023-04-03T00:42:44;2.60;99.90
9658;DHT22;4867;48.112;11.622;2023-04-03T00:45:52;2.60;99.90
9658;DHT22;4867;48.112;11.622;2023-04-03T00:48:37;2.60;99.90
9658;DHT22;4867;48.112;11.622;2023-04-03T00:51:08;2.70;99.90
9658;DHT22;4867;48.112;11.622;2023-04-03T00:53:51;2.70;99.90
9658;DHT22;4867;48.112;11.622;2023-04-03T00:56:24;2.70;99.90
9658;DHT22;4867;48.112;11.622;2023-04-03T00:58:59;2.70;99.90
9658;DHT22;4867;48.112;11.622;2023-04-03T01:01:29;2.60;99.90
9658;DHT22;4867;48.112;11.622;2023-04-03T01:03:59;2.60;99.90
9658;DHT22;4867;48.112;11.622;2023-04-03T01:06:30;2.60;99.90
9658;DHT22;4867;48.112;11.622;2023-04-03T01:09:05;2.60;99.90
9658;DHT22;4867;48.112;11.622;2023-04-03T01:11:33;2.60;99.90
9658;DHT22;4867;48.112;11.622;2023-04-03T01:14:01;2.60;99.90
9658;DHT22;4867;48.112;11.622;2023-04-03T01:16:30;2.60;99.90
9658;DHT22;4867;48.112;11.622;2023-04-03T01:19:01;2.50;99.90
9658;DHT22;4867;48.112;11.622;2023-04-03T01:26:27;2.60;99.90
9658;DHT22;4867;48.112;11.622;2023-04-03T01:28:55;2.60;99.90
9658;DHT22;4867;48.112;11.622;2023-04-03T01:31:31;2.70;99.90
9658;DHT22;4867;48.112;11.622;2023-04-03T01:33:59;2.70;99.90
9658;DHT22;4867;48.112;11.622;2023-04-03T01:36:31;2.80;99.90
9658;DHT22;4867;48.112;11.622;2023-04-03T01:38:59;2.80;99.90
9658;DHT22;4867;48.112;11.622;2023-04-03T01:41:28;2.90;99.90
9658;DHT22;4867;48.112;11.622;2023-04-03T01:44:03;2.90;99.90
9658;DHT22;4867;48.112;11.622;2023-04-03T01:46:31;2.90;99.90
9658;DHT22;4867;48.112;11.622;2023-04-03T01:48:59;2.90;99.90
9658;DHT22;4867;48.112;11.622;2023-04-03T01:51:26;2.90;99.90
9658;DHT22;4867;48.112;11.622;2023-04-03T01:53:53;3.00;99.90
9658;DHT22;4867;48.112;11.622;2023-04-03T01:56:21;3.00;99.90
9658;DHT22;4867;48.112;11.622;2023-04-03T01:58:49;3.00;99.90
9658;DHT22;4867;48.112;11.622;2023-04-03T02:01:17;3.00;99.90
9658;DHT22;4867;48.112;11.622;2023-04-03T02:03:44;3.10;99.90
9658;DHT22;4867;48.112;11.622;2023-04-03T02:06:12;3.10;99.90
9658;DHT22;4867;48.112;11.622;2023-04-03T02:08:39;3.10;99.90
9658;DHT22;4867;48.112;11.622;2023-04-03T02:11:07;3.20;99.90
9658;DHT22;4867;48.112;11.622;2023-04-03T02:13:34;3.20;99.90
9658;DHT22;4867;48.112;11.622;2023-04-03T02:16:11;3.20;99.90
9658;DHT22;4867;48.112;11.622;2023-04-03T02:18:39;3.20;99.90
9658;DHT22;4867;48.112;11.622;2023-04-03T02:21:07;3.20;99.90
9658;DHT22;4867;48.112;11.622;2023-04-03T02:23:34;3.20;99.90
9658;DHT22;4867;48.112;11.622;2023-04-03T02:26:06;3.30;99.90
9658;DHT22;4867;48.112;11.622;2023-04-03T02:28:33;3.30;99.90
9658;DHT22;4867;48.112;11.622;2023-04-03T02:31:03;3.30;99.90
9658;DHT22;4867;48.112;11.622;2023-04-03T02:33:31;3.30;99.90
9658;DHT22;4867;48.112;11.622;2023-04-03T02:35:59;3.30;99.90
9658;DHT22;4867;48.112;11.622;2023-04-03T02:38:26;3.30;99.90
9658;DHT22;4867;48.112;11.622;2023-04-03T02:41:06;3.20;99.90
9658;DHT22;4867;48.112;11.622;2023-04-03T02:43:34;3.20;99.90
9658;DHT22;4867;48.112;11.622;2023-04-03T02:46:01;3.20;99.90
9658;DHT22;4867;48.112;11.622;2023-04-03T02:48:29;3.20;99.90
9658;DHT22;4867;48.112;11.622;2023-04-03T02:50:56;3.20;99.90
9658;DHT22;4867;48.112;11.622;2023-04-03T02:53:23;3.30;99.90
9658;DHT22;4867;48.112;11.622;2023-04-03T02:55:53;3.20;99.90
9658;DHT22;4867;48.112;11.622;2023-04-03T02:58:21;3.20;99.90
9658;DHT22;4867;48.112;11.622;2023-04-03T03:00:49;3.10;99.90
9658;DHT22;4867;48.112;11.622;2023-04-03T03:03:16;3.10;99.90
9658;DHT22;4867;48.112;11.622;2023-04-03T03:05:43;3.00;99.90
9658;DHT22;4867;48.112;11.622;2023-04-03T03:08:11;3.00;99.90
9658;DHT22;4867;48.112;11.622;2023-04-03T03:10:38;3.00;99.90
9658;DHT22;4867;48.112;11.622;2023-04-03T03:13:07;3.00;99.90
9658;DHT22;4867;48.112;11.622;2023-04-03T03:15:34;3.00;99.90
9658;DHT22;4867;48.112;11.622;2023-04-03T03:18:02;2.90;99.90
9658;DHT22;4867;48.112;11.622;2023-04-03T03:20:29;3.00;99.90
9658;DHT22;4867;48.112;11.622;2023-04-03T03:22:58;2.90;99.90
9658;DHT22;4867;48.112;11.622;2023-04-03T03:25:25;3.00;99.90
9658;DHT22;4867;48.112;11.622;2023-04-03T03:27:54;3.00;99.90
9658;DHT22;4867;48.112;11.622;2023-04-03T03:30:22;3.10;99.90
9658;DHT22;4867;48.112;11.622;2023-04-03T03:32:49;3.10;99.90
9658;DHT22;4867;48.112;11.622;2023-04-03T03:35:17;3.10;99.90
9658;DHT22;4867;48.112;11.622;2023-04-03T03:37:44;3.10;99.90
9658;DHT22;4867;48.112;11.622;2023-04-03T03:40:12;3.10;99.90
9658;DHT22;4867;48.112;11.622;2023-04-03T03:42:40;3.10;99.90
9658;DHT22;4867;48.112;11.622;2023-04-03T03:45:08;3.10;99.90
9658;DHT22;4867;48.112;11.622;2023-04-03T03:47:35;3.20;99.90
9658;DHT22;4867;48.112;11.622;2023-04-03T03:50:03;3.10;99.90
9658;DHT22;4867;48.112;11.622;2023-04-03T03:52:30;3.10;99.90
9658;DHT22;4867;48.112;11.622;2023-04-03T03:54:58;3.10;99.90
9658;DHT22;4867;48.112;11.622;2023-04-03T03:57:25;3.10;99.90
9658;DHT22;4867;48.112;11.622;2023-04-03T03:59:55;3.10;99.90
9658;DHT22;4867;48.112;11.622;2023-04-03T04:02:23;3.10;99.90
9658;DHT22;4867;48.112;11.622;2023-04-03T04:04:52;3.10;99.90
9658;DHT22;4867;48.112;11.622;2023-04-03T04:07:19;3.00;99.90
9658;DHT22;4867;48.112;11.622;2023-04-03T04:09:47;3.00;99.90
9658;DHT22;4867;48.112;11.622;2023-04-03T04:12:14;3.00;99.90
9658;DHT22;4867;48.112;11.622;2023-04-03T04:14:42;3.00;99.90
9658;DHT22;4867;48.112;11.622;2023-04-03T04:17:14;3.00;99.90
9658;DHT22;4867;48.112;11.622;2023-04-03T04:19:41;3.00;99.90
9658;DHT22;4867;48.112;11.622;2023-04-03T04:22:09;3.10;99.90
9658;DHT22;4867;48.112;11.622;2023-04-03T04:24:36;3.10;99.90
9658;DHT22;4867;48.112;11.622;2023-04-03T04:27:06;3.10;99.90
9658;DHT22;4867;48.112;11.622;2023-04-03T04:29:34;3.10;99.90
9658;DHT22;4867;48.112;11.622;2023-04-03T04:32:05;3.10;99.90
9658;DHT22;4867;48.112;11.622;2023-04-03T04:34:32;3.10;99.90
9658;DHT22;4867;48.112;11.622;2023-04-03T04:37:01;3.20;99.90
9658;DHT22;4867;48.112;11.622;2023-04-03T04:39:28;3.10;99.90
9658;DHT22;4867;48.112;11.622;2023-04-03T04:41:58;3.00;99.90
9658;DHT22;4867;48.112;11.622;2023-04-03T04:44:28;3.00;99.90
9658;DHT22;4867;48.112;11.622;2023-04-03T04:46:56;3.00;99.90
9658;DHT22;4867;48.112;11.622;2023-04-03T04:49:23;2.90;99.90
9658;DHT22;4867;48.112;11.622;2023-04-03T04:51:51;2.90;99.90
9658;DHT22;4867;48.112;11.622;2023-04-03T04:54:24;2.90;99.90
9658;DHT22;4867;48.112;11.622;2023-04-03T04:56:52;3.00;99.90
9658;DHT22;4867;48.112;11.622;2023-04-03T04:59:20;3.00;99.90
9658;DHT22;4867;48.112;11.622;2023-04-03T05:01:49;3.00;99.90
9658;DHT22;4867;48.112;11.622;2023-04-03T05:04:17;3.00;99.90
9658;DHT22;4867;48.112;11.622;2023-04-03T05:06:50;2.90;99.90
9658;DHT22;4867;48.112;11.622;2023-04-03T05:09:22;3.00;99.90
9658;DHT22;4867;48.112;11.622;2023-04-03T05:11:50;3.00;99.90
9658;DHT22;4867;48.112;11.622;2023-04-03T05:14:21;3.00;99.90
9658;DHT22;4867;48.112;11.622;2023-04-03T05:16:49;3.00;99.90
9658;DHT22;4867;48.112;11.622;2023-04-03T05:19:21;2.90;99.90
9658;DHT22;4867;48.112;11.622;2023-04-03T05:21:50;2.90;99.90
9658;DHT22;4867;48.112;11.622;2023-04-03T05:24:18;2.90;99.90
9658;DHT22;4867;48.112;11.622;2023-04-03T05:26:45;2.80;99.90
9658;DHT22;4867;48.112;11.622;2023-04-03T05:29:14;2.90;99.90
9658;DHT22;4867;48.112;11.622;2023-04-03T05:31:41;2.90;99.90
9658;DHT22;4867;48.112;11.622;2023-04-03T05:34:11;2.90;99.90
9658;DHT22;4867;48.112;11.622;2023-04-03T05:36:40;2.90;99.90
9658;DHT22;4867;48.112;11.622;2023-04-03T05:39:09;2.90;99.90
9658;DHT22;4867;48.112;11.622;2023-04-03T05:41:40;2.90;99.90
9658;DHT22;4867;48.112;11.622;2023-04-03T05:44:07;2.90;99.90
9658;DHT22;4867;48.112;11.622;2023-04-03T05:46:35;2.90;99.90
9658;DHT22;4867;48.112;11.622;2023-04-03T05:49:05;3.00;99.90
9658;DHT22;4867;48.112;11.622;2023-04-03T05:51:36;3.00;99.90
9658;DHT22;4867;48.112;11.622;2023-04-03T05:54:26;3.00;99.90
9658;DHT22;4867;48.112;11.622;2023-04-03T05:57:07;3.00;99.90
9658;DHT22;4867;48.112;11.622;2023-04-03T05:59:35;3.10;99.90
9658;DHT22;4867;48.112;11.622;2023-04-03T06:02:03;3.10;99.90
9658;DHT22;4867;48.112;11.622;2023-04-03T06:04:30;3.10;99.90
9658;DHT22;4867;48.112;11.622;2023-04-03T06:06:58;3.20;99.90
9658;DHT22;4867;48.112;11.622;2023-04-03T06:09:27;3.20;99.90
9658;DHT22;4867;48.112;11.622;2023-04-03T06:11:57;3.20;99.90
9658;DHT22;4867;48.112;11.622;2023-04-03T06:14:28;3.20;99.90
9658;DHT22;4867;48.112;11.622;2023-04-03T06:16:56;3.20;99.90
9658;DHT22;4867;48.112;11.622;2023-04-03T06:19:23;3.20;99.90
9658;DHT22;4867;48.112;11.622;2023-04-03T06:21:54;3.30;99.90
9658;DHT22;4867;48.112;11.622;2023-04-03T06:24:23;3.30;99.90
9658;DHT22;4867;48.112;11.622;2023-04-03T06:26:53;3.30;99.90
9658;DHT22;4867;48.112;11.622;2023-04-03T06:29:20;3.30;99.90
9658;DHT22;4867;48.112;11.622;2023-04-03T06:31:48;3.30;99.90
9658;DHT22;4867;48.112;11.622;2023-04-03T06:34:16;3.30;99.90
9658;DHT22;4867;48.112;11.622;2023-04-03T06:36:45;3.40;99.90
9658;DHT22;4867;48.112;11.622;2023-04-03T06:39:15;3.50;99.90
9658;DHT22;4867;48.112;11.622;2023-04-03T06:41:43;3.60;99.90
9658;DHT22;4867;48.112;11.622;2023-04-03T06:44:11;3.60;99.90
9658;DHT22;4867;48.112;11.622;2023-04-03T06:46:39;3.60;99.90
9658;DHT22;4867;48.112;11.622;2023-04-03T06:49:07;3.60;99.90
9658;DHT22;4867;48.112;11.622;2023-04-03T06:51:36;3.60;99.90
9658;DHT22;4867;48.112;11.622;2023-04-03T06:54:04;3.60;99.90
9658;DHT22;4867;48.112;11.622;2023-04-03T06:56:32;3.60;99.90
9658;DHT22;4867;48.112;11.622;2023-04-03T06:59:00;3.60;99.90
9658;DHT22;4867;48.112;11.622;2023-04-03T07:01:28;3.70;99.90
9658;DHT22;4867;48.112;11.622;2023-04-03T07:03:57;3.70;99.90
9658;DHT22;4867;48.112;11.622;2023-04-03T07:06:24;3.80;99.90
9658;DHT22;4867;48.112;11.622;2023-04-03T07:08:54;3.90;99.90
9658;DHT22;4867;48.112;11.622;2023-04-03T07:11:22;3.90;99.90
9658;DHT22;4867;48.112;11.622;2023-04-03T07:13:50;3.90;99.90
9658;DHT22;4867;48.112;11.622;2023-04-03T07:16:18;4.00;99.90
9658;DHT22;4867;48.112;11.622;2023-04-03T07:18:46;4.10;99.90
9658;DHT22;4867;48.112;11.622;2023-04-03T07:21:13;4.10;99.90
9658;DHT22;4867;48.112;11.622;2023-04-03T07:23:41;4.10;99.90
9658;DHT22;4867;48.112;11.622;2023-04-03T07:26:08;4.20;99.90
9658;DHT22;4867;48.112;11.622;2023-04-03T07:28:36;4.20;99.90
9658;DHT22;4867;48.112;11.622;2023-04-03T07:31:06;4.20;99.90
9658;DHT22;4867;48.112;11.622;2023-04-03T07:33:36;4.20;99.90
9658;DHT22;4867;48.112;11.622;2023-04-03T07:36:07;4.20;99.90
9658;DHT22;4867;48.112;11.622;2023-04-03T07:38:37;4.20;99.90
9658;DHT22;4867;48.112;11.622;2023-04-03T07:41:04;4.20;99.90
9658;DHT22;4867;48.112;11.622;2023-04-03T07:43:32;4.30;99.90
9658;DHT22;4867;48.112;11.622;2023-04-03T07:46:01;4.30;99.90
9658;DHT22;4867;48.112;11.622;2023-04-03T07:48:29;4.30;99.90
9658;DHT22;4867;48.112;11.622;2023-04-03T07:51:00;4.30;99.90
9658;DHT22;4867;48.112;11.622;2023-04-03T07:53:28;4.20;99.90
9658;DHT22;4867;48.112;11.622;2023-04-03T07:55:57;4.20;99.90
9658;DHT22;4867;48.112;11.622;2023-04-03T07:58:26;4.20;99.90
9658;DHT22;4867;48.112;11.622;2023-04-03T08:00:54;4.10;99.90
9658;DHT22;4867;48.112;11.622;2023-04-03T08:03:21;4.00;99.90
9658;DHT22;4867;48.112;11.622;2023-04-03T08:05:50;4.00;99.90
9658;DHT22;4867;48.112;11.622;2023-04-03T08:08:20;4.10;99.90
9658;DHT22;4867;48.112;11.622;2023-04-03T08:10:52;4.20;99.90
9658;DHT22;4867;48.112;11.622;2023-04-03T08:13:21;4.20;99.90
9658;DHT22;4867;48.112;11.622;2023-04-03T08:15:49;4.20;99.90
9658;DHT22;4867;48.112;11.622;2023-04-03T08:18:18;4.20;99.90
9658;DHT22;4867;48.112;11.622;2023-04-03T08:20:48;4.20;99.90
9658;DHT22;4867;48.112;11.622;2023-04-03T08:23:15;4.20;99.90
9658;DHT22;4867;48.112;11.622;2023-04-03T08:25:46;4.30;99.90
9658;DHT22;4867;48.112;11.622;2023-04-03T08:28:13;4.30;99.90
9658;DHT22;4867;48.112;11.622;2023-04-03T08:30:41;4.40;99.90
9658;DHT22;4867;48.112;11.622;2023-04-03T08:33:09;4.50;99.90
9658;DHT22;4867;48.112;11.622;2023-04-03T08:35:41;4.50;99.90
9658;DHT22;4867;48.112;11.622;2023-04-03T08:38:11;4.60;99.90
9658;DHT22;4867;48.112;11.622;2023-04-03T08:40:39;4.60;99.90
9658;DHT22;4867;48.112;11.622;2023-04-03T08:43:37;4.60;99.90
9658;DHT22;4867;48.112;11.622;2023-04-03T08:46:11;4.60;99.90
9658;DHT22;4867;48.112;11.622;2023-04-03T08:48:41;4.70;99.90
9658;DHT22;4867;48.112;11.622;2023-04-03T08:51:14;4.80;99.90
9658;DHT22;4867;48.112;11.622;2023-04-03T08:54:04;4.80;99.90
9658;DHT22;4867;48.112;11.622;2023-04-03T08:56:35;4.80;99.90
9658;DHT22;4867;48.112;11.622;2023-04-03T08:59:12;4.80;99.90
9658;DHT22;4867;48.112;11.622;2023-04-03T09:01:41;4.90;99.90
9658;DHT22;4867;48.112;11.622;2023-04-03T09:04:14;4.90;99.90
9658;DHT22;4867;48.112;11.622;2023-04-03T09:06:56;5.00;99.90
9658;DHT22;4867;48.112;11.622;2023-04-03T09:09:30;5.10;99.90
9658;DHT22;4867;48.112;11.622;2023-04-03T09:12:19;5.20;99.90
9658;DHT22;4867;48.112;11.622;2023-04-03T09:18:00;5.40;99.90
9658;DHT22;4867;48.112;11.622;2023-04-03T09:20:41;5.50;99.90
9658;DHT22;4867;48.112;11.622;2023-04-03T09:23:52;5.60;99.90
9658;DHT22;4867;48.112;11.622;2023-04-03T09:28:59;5.70;99.90
9658;DHT22;4867;48.112;11.622;2023-04-03T09:31:35;5.60;99.90
9658;DHT22;4867;48.112;11.622;2023-04-03T09:34:23;5.50;99.90
9658;DHT22;4867;48.112;11.622;2023-04-03T09:36:54;5.40;99.90
9658;DHT22;4867;48.112;11.622;2023-04-03T09:39:28;5.50;99.90
9658;DHT22;4867;48.112;11.622;2023-04-03T09:42:14;5.50;99.90
9658;DHT22;4867;48.112;11.622;2023-04-03T09:44:56;5.60;99.90
9658;DHT22;4867;48.112;11.622;2023-04-03T09:47:36;5.50;99.90
9658;DHT22;4867;48.112;11.622;2023-04-03T09:52:45;5.70;99.90
9658;DHT22;4867;48.112;11.622;2023-04-03T09:55:23;5.80;99.90
9658;DHT22;4867;48.112;11.622;2023-04-03T09:57:59;6.00;99.90
9658;DHT22;4867;48.112;11.622;2023-04-03T10:00:30;6.00;99.90
9658;DHT22;4867;48.112;11.622;2023-04-03T10:02:59;6.00;99.90
9658;DHT22;4867;48.112;11.622;2023-04-03T10:05:35;6.00;99.90
9658;DHT22;4867;48.112;11.622;2023-04-03T10:10:44;5.90;99.90
9658;DHT22;4867;48.112;11.622;2023-04-03T10:13:19;5.80;99.90
9658;DHT22;4867;48.112;11.622;2023-04-03T10:15:55;5.70;99.90
9658;DHT22;4867;48.112;11.622;2023-04-03T10:18:39;5.60;99.90
9658;DHT22;4867;48.112;11.622;2023-04-03T10:21:15;5.60;99.90
9658;DHT22;4867;48.112;11.622;2023-04-03T10:24:00;5.50;99.90
9658;DHT22;4867;48.112;11.622;2023-04-03T10:26:49;5.40;99.90
9658;DHT22;4867;48.112;11.622;2023-04-03T10:37:53;5.60;99.90
9658;DHT22;4867;48.112;11.622;2023-04-03T10:41:00;5.40;99.90
9658;DHT22;4867;48.112;11.622;2023-04-03T10:44:05;5.10;99.90
9658;DHT22;4867;48.112;11.622;2023-04-03T10:46:28;4.90;99.90
9658;DHT22;4867;48.112;11.622;2023-04-03T10:54:46;4.30;99.90
9658;DHT22;4867;48.112;11.622;2023-04-03T10:57:17;4.20;99.90
9658;DHT22;4867;48.112;11.622;2023-04-03T10:59:50;4.10;99.90
9658;DHT22;4867;48.112;11.622;2023-04-03T11:02:31;4.00;99.90
9658;DHT22;4867;48.112;11.622;2023-04-03T11:05:15;4.00;99.90
9658;DHT22;4867;48.112;11.622;2023-04-03T11:07:48;4.10;99.90
9658;DHT22;4867;48.112;11.622;2023-04-03T11:10:23;4.10;99.90
9658;DHT22;4867;48.112;11.622;2023-04-03T11:13:01;4.30;99.90
9658;DHT22;4867;48.112;11.622;2023-04-03T11:15:30;4.30;99.90
9658;DHT22;4867;48.112;11.622;2023-04-03T11:18:08;4.20;99.90
9658;DHT22;4867;48.112;11.622;2023-04-03T11:20:42;4.30;99.90
9658;DHT22;4867;48.112;11.622;2023-04-03T11:23:36;4.50;99.90
9658;DHT22;4867;48.112;11.622;2023-04-03T11:26:19;4.60;99.90
9658;DHT22;4867;48.112;11.622;2023-04-03T11:28:53;4.70;99.90
9658;DHT22;4867;48.112;11.622;2023-04-03T11:34:31;4.80;99.90
9658;DHT22;4867;48.112;11.622;2023-04-03T11:37:05;4.90;99.90
9658;DHT22;4867;48.112;11.622;2023-04-03T11:39:38;4.90;99.90
9658;DHT22;4867;48.112;11.622;2023-04-03T11:42:42;5.00;99.90
9658;DHT22;4867;48.112;11.622;2023-04-03T11:58:23;5.50;99.90
9658;DHT22;4867;48.112;11.622;2023-04-03T12:24:29;5.80;99.90
9658;DHT22;4867;48.112;11.622;2023-04-03T12:32:26;6.10;99.90
9658;DHT22;4867;48.112;11.622;2023-04-03T12:37:51;6.30;99.90
9658;DHT22;4867;48.112;11.622;2023-04-03T12:40:44;6.50;99.90
9658;DHT22;4867;48.112;11.622;2023-04-03T12:46:10;6.80;99.90
9658;DHT22;4867;48.112;11.622;2023-04-03T12:48:47;6.90;99.90
9658;DHT22;4867;48.112;11.622;2023-04-03T12:51:26;7.10;99.90
9658;DHT22;4867;48.112;11.622;2023-04-03T12:54:03;7.20;99.90
9658;DHT22;4867;48.112;11.622;2023-04-03T12:56:32;7.20;99.90
9658;DHT22;4867;48.112;11.622;2023-04-03T12:59:20;7.20;99.90
9658;DHT22;4867;48.112;11.622;2023-04-03T13:01:59;7.50;99.90
9658;DHT22;4867;48.112;11.622;2023-04-03T13:04:30;7.60;99.90
9658;DHT22;4867;48.112;11.622;2023-04-03T13:06:58;7.60;99.90
9658;DHT22;4867;48.112;11.622;2023-04-03T13:09:29;7.70;99.90
9658;DHT22;4867;48.112;11.622;2023-04-03T13:12:02;7.50;99.90
9658;DHT22;4867;48.112;11.622;2023-04-03T13:14:30;7.50;99.90
9658;DHT22;4867;48.112;11.622;2023-04-03T13:17:20;7.60;99.90
9658;DHT22;4867;48.112;11.622;2023-04-03T13:19:47;7.70;99.90
9658;DHT22;4867;48.112;11.622;2023-04-03T13:22:31;7.90;99.90
9658;DHT22;4867;48.112;11.622;2023-04-03T13:25:03;8.00;99.90
9658;DHT22;4867;48.112;11.622;2023-04-03T13:27:32;8.00;99.90
9658;DHT22;4867;48.112;11.622;2023-04-03T13:30:01;8.00;99.90
9658;DHT22;4867;48.112;11.622;2023-04-03T13:32:30;7.80;99.90
9658;DHT22;4867;48.112;11.622;2023-04-03T13:34:59;7.80;99.90
9658;DHT22;4867;48.112;11.622;2023-04-03T13:37:54;7.70;99.90
9658;DHT22;4867;48.112;11.622;2023-04-03T13:40:24;7.60;99.90
9658;DHT22;4867;48.112;11.622;2023-04-03T13:43:05;7.60;99.90
9658;DHT22;4867;48.112;11.622;2023-04-03T13:45:34;7.50;99.90
9658;DHT22;4867;48.112;11.622;2023-04-03T13:48:18;7.40;99.90
9658;DHT22;4867;48.112;11.622;2023-04-03T13:53:23;7.20;99.90
9658;DHT22;4867;48.112;11.622;2023-04-03T13:56:00;7.10;99.90
9658;DHT22;4867;48.112;11.622;2023-04-03T13:58:33;6.70;99.90
9658;DHT22;4867;48.112;11.622;2023-04-03T14:03:45;6.70;99.90
9658;DHT22;4867;48.112;11.622;2023-04-03T14:06:15;6.70;99.90
9658;DHT22;4867;48.112;11.622;2023-04-03T14:08:44;6.70;99.90
9658;DHT22;4867;48.112;11.622;2023-04-03T14:11:21;6.80;99.90
9658;DHT22;4867;48.112;11.622;2023-04-03T14:13:50;6.70;99.90
9658;DHT22;4867;48.112;11.622;2023-04-03T14:16:20;6.70;99.90
9658;DHT22;4867;48.112;11.622;2023-04-03T14:18:49;6.80;99.90
9658;DHT22;4867;48.112;11.622;2023-04-03T14:21:18;6.70;99.90
9658;DHT22;4867;48.112;11.622;2023-04-03T14:23:47;6.90;99.90
9658;DHT22;4867;48.112;11.622;2023-04-03T14:26:17;6.90;99.90
9658;DHT22;4867;48.112;11.622;2023-04-03T14:28:46;6.90;99.90
9658;DHT22;4867;48.112;11.622;2023-04-03T14:31:14;6.90;99.90
9658;DHT22;4867;48.112;11.622;2023-04-03T14:33:43;6.90;99.90
9658;DHT22;4867;48.112;11.622;2023-04-03T14:36:12;6.80;99.90
9658;DHT22;4867;48.112;11.622;2023-04-03T14:38:41;6.80;99.90
9658;DHT22;4867;48.112;11.622;2023-04-03T14:41:12;6.70;99.90
9658;DHT22;4867;48.112;11.622;2023-04-03T14:43:44;6.70;99.90
9658;DHT22;4867;48.112;11.622;2023-04-03T14:46:19;6.80;99.90
9658;DHT22;4867;48.112;11.622;2023-04-03T14:48:47;6.80;99.90
9658;DHT22;4867;48.112;11.622;2023-04-03T14:51:15;6.80;99.90
9658;DHT22;4867;48.112;11.622;2023-04-03T14:53:44;6.90;99.90
9658;DHT22;4867;48.112;11.622;2023-04-03T14:56:23;6.80;99.90
9658;DHT22;4867;48.112;11.622;2023-04-03T14:58:56;6.80;99.90
9658;DHT22;4867;48.112;11.622;2023-04-03T15:01:24;6.80;99.90
9658;DHT22;4867;48.112;11.622;2023-04-03T15:03:52;6.80;99.90
9658;DHT22;4867;48.112;11.622;2023-04-03T15:06:20;7.00;99.90
9658;DHT22;4867;48.112;11.622;2023-04-03T15:08:48;7.20;99.90
9658;DHT22;4867;48.112;11.622;2023-04-03T15:11:15;7.10;99.90
9658;DHT22;4867;48.112;11.622;2023-04-03T15:13:43;6.90;99.90
9658;DHT22;4867;48.112;11.622;2023-04-03T15:16:17;6.80;99.90
9658;DHT22;4867;48.112;11.622;2023-04-03T15:18:47;6.70;99.90
9658;DHT22;4867;48.112;11.622;2023-04-03T15:21:14;6.60;99.90
9658;DHT22;4867;48.112;11.622;2023-04-03T15:23:42;6.50;99.90
9658;DHT22;4867;48.112;11.622;2023-04-03T15:26:09;6.50;99.90
9658;DHT22;4867;48.112;11.622;2023-04-03T15:28:40;6.50;99.90
9658;DHT22;4867;48.112;11.622;2023-04-03T15:31:09;6.40;99.90
9658;DHT22;4867;48.112;11.622;2023-04-03T15:33:36;6.40;99.90
9658;DHT22;4867;48.112;11.622;2023-04-03T15:36:05;6.30;99.90
9658;DHT22;4867;48.112;11.622;2023-04-03T15:38:34;6.20;99.90
9658;DHT22;4867;48.112;11.622;2023-04-03T15:41:01;6.20;99.90
9658;DHT22;4867;48.112;11.622;2023-04-03T15:43:30;6.20;99.90
9658;DHT22;4867;48.112;11.622;2023-04-03T15:45:58;6.10;99.90
9658;DHT22;4867;48.112;11.622;2023-04-03T15:48:27;6.10;99.80
9658;DHT22;4867;48.112;11.622;2023-04-03T15:50:55;6.10;99.70
9658;DHT22;4867;48.112;11.622;2023-04-03T15:53:25;6.10;99.90
9658;DHT22;4867;48.112;11.622;2023-04-03T15:55:52;6.10;99.80
9658;DHT22;4867;48.112;11.622;2023-04-03T15:58:20;5.90;99.90
9658;DHT22;4867;48.112;11.622;2023-04-03T16:00:48;5.90;99.90
9658;DHT22;4867;48.112;11.622;2023-04-03T16:03:17;5.90;99.40
9658;DHT22;4867;48.112;11.622;2023-04-03T16:05:46;5.90;99.00
9658;DHT22;4867;48.112;11.622;2023-04-03T16:08:14;5.90;99.70
9658;DHT22;4867;48.112;11.622;2023-04-03T16:10:41;5.90;99.40
9658;DHT22;4867;48.112;11.622;2023-04-03T16:13:08;6.00;99.00
9658;DHT22;4867;48.112;11.622;2023-04-03T16:15:36;6.00;99.40
9658;DHT22;4867;48.112;11.622;2023-04-03T16:18:04;5.90;99.50
9658;DHT22;4867;48.112;11.622;2023-04-03T16:20:32;5.80;99.30
9658;DHT22;4867;48.112;11.622;2023-04-03T16:23:01;5.70;99.90
9658;DHT22;4867;48.112;11.622;2023-04-03T16:25:28;5.70;99.90
9658;DHT22;4867;48.112;11.622;2023-04-03T16:27:58;5.70;99.90
9658;DHT22;4867;48.112;11.622;2023-04-03T16:30:26;5.60;99.90
9658;DHT22;4867;48.112;11.622;2023-04-03T16:32:53;5.50;99.90
9658;DHT22;4867;48.112;11.622;2023-04-03T16:35:22;5.50;99.90
9658;DHT22;4867;48.112;11.622;2023-04-03T16:37:50;5.40;99.90
9658;DHT22;4867;48.112;11.622;2023-04-03T16:40:17;5.40;99.20
9658;DHT22;4867;48.112;11.622;2023-04-03T16:42:45;5.40;99.80
9658;DHT22;4867;48.112;11.622;2023-04-03T16:45:14;5.30;99.40
9658;DHT22;4867;48.112;11.622;2023-04-03T16:47:41;5.30;99.60
9658;DHT22;4867;48.112;11.622;2023-04-03T16:50:09;5.30;99.70
9658;DHT22;4867;48.112;11.622;2023-04-03T16:52:37;5.20;99.80
9658;DHT22;4867;48.112;11.622;2023-04-03T16:55:05;5.30;99.90
9658;DHT22;4867;48.112;11.622;2023-04-03T16:57:33;5.30;99.90
9658;DHT22;4867;48.112;11.622;2023-04-03T17:00:00;5.30;99.60
9658;DHT22;4867;48.112;11.622;2023-04-03T17:02:27;5.30;99.90
9658;DHT22;4867;48.112;11.622;2023-04-03T17:04:54;5.20;99.90
9658;DHT22;4867;48.112;11.622;2023-04-03T17:07:23;5.20;99.90
9658;DHT22;4867;48.112;11.622;2023-04-03T17:09:51;5.10;99.90
9658;DHT22;4867;48.112;11.622;2023-04-03T17:12:20;5.10;99.90
9658;DHT22;4867;48.112;11.622;2023-04-03T17:14:48;5.00;99.90
9658;DHT22;4867;48.112;11.622;2023-04-03T17:17:19;4.90;99.90
9658;DHT22;4867;48.112;11.622;2023-04-03T17:19:48;4.90;99.90
9658;DHT22;4867;48.112;11.622;2023-04-03T17:22:15;4.80;99.90
9658;DHT22;4867;48.112;11.622;2023-04-03T17:24:44;4.80;99.90
9658;DHT22;4867;48.112;11.622;2023-04-03T17:27:11;4.70;99.90
9658;DHT22;4867;48.112;11.622;2023-04-03T17:29:39;4.80;99.90
9658;DHT22;4867;48.112;11.622;2023-04-03T17:32:06;4.70;99.90
9658;DHT22;4867;48.112;11.622;2023-04-03T17:34:44;4.70;99.90
9658;DHT22;4867;48.112;11.622;2023-04-03T17:37:12;4.60;99.90
9658;DHT22;4867;48.112;11.622;2023-04-03T17:39:39;4.60;99.90
9658;DHT22;4867;48.112;11.622;2023-04-03T17:42:06;4.60;99.90
9658;DHT22;4867;48.112;11.622;2023-04-03T17:44:34;4.50;99.90
9658;DHT22;4867;48.112;11.622;2023-04-03T17:47:01;4.40;99.90
9658;DHT22;4867;48.112;11.622;2023-04-03T17:49:29;4.30;99.90
9658;DHT22;4867;48.112;11.622;2023-04-03T17:51:56;4.30;99.90